Time;durP1;ratioP1;P1;durP2;ratioP2;P2;SDS_P1;SDS_P2;PMS_P1;PMS_P2;Temp;Humidity;BMP_temperature;BMP_pressure;BME280_temperature;BME280_humidity;BME280_pressure;Samples;Min_cycle;Max_cycle;Signal;HPM_P1;HPM_P2
2023/03/05 05:06:02;;;;;;;36.75;12.90;;;;;;;0.26;100.00;99125.69;5090623;27;20372;-79
2023/03/05 05:08:29;;;;;;;35.47;11.93;;;;;;;0.38;100.00;99131.03;5069795;28;20400;-78
2023/03/05 05:10:57;;;;;;;43.38;12.70;;;;;;;0.40;100.00;99113.06;5066637;28;20063;-78
2023/03/05 05:13:25;;;;;;;35.47;13.05;;;;;;;0.44;100.00;99103.84;5066847;28;20275;-78
2023/03/05 05:15:51;;;;;;;35.92;13.30;;;;;;;0.53;100.00;99114.66;5066020;28;20118;-78
2023/03/05 05:18:18;;;;;;;41.30;12.50;;;;;;;0.59;100.00;99107.97;5067423;28;20059;-78
2023/03/05 05:20:45;;;;;;;36.83;12.55;;;;;;;0.60;100.00;99103.44;5066958;28;20540;-78
2023/03/05 05:23:13;;;;;;;32.92;12.88;;;;;;;0.77;100.00;99132.38;5066593;28;20443;-78
2023/03/05 05:25:39;;;;;;;43.90;13.55;;;;;;;0.74;100.00;99113.91;5059228;28;20051;-78
2023/03/05 05:28:06;;;;;;;36.85;13.95;;;;;;;0.73;100.00;99114.03;5067324;28;20488;-78
2023/03/05 05:30:33;;;;;;;28.88;11.98;;;;;;;0.79;100.00;99126.91;5067294;28;20052;-78
2023/03/05 05:32:59;;;;;;;33.75;13.00;;;;;;;0.84;100.00;99130.94;5066073;28;20049;-78
2023/03/05 05:35:26;;;;;;;33.05;13.52;;;;;;;0.88;100.00;99139.56;5067229;28;20048;-78
2023/03/05 05:37:52;;;;;;;40.63;14.25;;;;;;;0.79;100.00;99125.06;5047358;28;20049;-78
2023/03/05 05:40:20;;;;;;;44.38;15.48;;;;;;;0.74;100.00;99113.03;5062017;28;20051;-78
2023/03/05 05:42:47;;;;;;;40.13;14.85;;;;;;;0.77;100.00;99110.13;5065599;28;20064;-78
2023/03/05 05:45:14;;;;;;;44.85;16.45;;;;;;;0.89;100.00;99122.53;5066985;28;20045;-78
2023/03/05 05:47:40;;;;;;;40.60;14.13;;;;;;;1.03;100.00;99135.63;5067087;28;20047;-78
2023/03/05 05:50:07;;;;;;;44.42;15.88;;;;;;;1.01;100.00;99126.00;5067170;28;20385;-78
2023/03/05 05:52:34;;;;;;;41.60;15.82;;;;;;;1.05;100.00;99125.66;5066107;28;20053;-78
2023/03/05 05:55:00;;;;;;;41.88;15.13;;;;;;;1.05;100.00;99130.13;5062955;28;20488;-77
2023/03/05 05:57:28;;;;;;;50.75;16.13;;;;;;;0.99;100.00;99130.66;5066571;28;20418;-78
2023/03/05 05:59:55;;;;;;;35.25;13.52;;;;;;;0.86;100.00;99106.72;5066582;28;20063;-78
2023/03/05 06:02:21;;;;;;;52.50;16.15;;;;;;;0.83;100.00;99105.13;5066291;28;20439;-78
2023/03/05 06:04:48;;;;;;;39.17;15.68;;;;;;;0.91;100.00;99133.94;5066377;28;20432;-78
2023/03/05 06:07:14;;;;;;;35.67;14.75;;;;;;;0.75;100.00;99112.06;5066748;28;20049;-78
2023/03/05 06:09:41;;;;;;;35.67;14.13;;;;;;;0.89;100.00;99122.53;5064904;28;20052;-78
2023/03/05 06:12:08;;;;;;;42.08;16.25;;;;;;;0.78;100.00;99115.34;5065735;28;20411;-78
2023/03/05 06:14:36;;;;;;;45.65;15.25;;;;;;;0.90;100.00;99126.03;5065036;28;20036;-78
2023/03/05 06:17:02;;;;;;;33.67;13.73;;;;;;;0.87;100.00;99119.09;5054406;28;20055;-78
2023/03/05 06:19:29;;;;;;;36.10;16.52;;;;;;;0.81;100.00;99104.41;5053360;28;20128;-78
2023/03/05 06:21:55;;;;;;;47.97;16.60;;;;;;;0.88;100.00;99123.50;5053462;28;20060;-78
2023/03/05 06:24:22;;;;;;;54.63;18.63;;;;;;;0.90;100.00;99108.16;5050554;28;20590;-78
2023/03/05 06:26:48;;;;;;;48.35;17.83;;;;;;;0.90;100.00;99116.19;5052896;28;20431;-78
2023/03/05 06:29:15;;;;;;;40.13;15.18;;;;;;;1.05;100.00;99135.50;5053047;28;20049;-78
2023/03/05 06:31:43;;;;;;;38.63;14.82;;;;;;;1.01;100.00;99134.03;5051985;28;20049;-78
2023/03/05 06:34:10;;;;;;;50.33;17.45;;;;;;;0.98;100.00;99121.78;5052000;28;20099;-78
2023/03/05 06:36:39;;;;;;;43.03;15.10;;;;;;;0.86;100.00;99107.56;5052899;28;20045;-78
2023/03/05 06:39:06;;;;;;;36.30;16.08;;;;;;;0.91;100.00;99101.00;5051820;28;20268;-78
2023/03/05 06:41:33;;;;;;;40.50;15.45;;;;;;;0.99;100.00;99118.09;5052746;28;20057;-78
2023/03/05 06:44:03;;;;;;;45.65;14.88;;;;;;;0.90;100.00;99109.97;5050417;28;20059;-78
2023/03/05 06:46:47;;;;;;;;;;;;;;;1.13;100.00;99135.75;5053822;28;20404;-78
2023/03/05 06:49:15;;;;;;;36.17;14.38;;;;;;;1.00;100.00;99105.59;5041550;28;19935;-78
2023/03/05 06:51:42;;;;;;;50.03;16.10;;;;;;;1.08;100.00;99116.50;5052994;28;20484;-77
2023/03/05 06:54:11;;;;;;;38.08;15.05;;;;;;;1.10;100.00;99108.34;5049526;28;20420;-78
2023/03/05 06:56:40;;;;;;;41.72;14.85;;;;;;;1.14;100.00;99120.50;5050479;28;20051;-77
2023/03/05 06:59:07;;;;;;;43.67;15.48;;;;;;;1.10;100.00;99124.41;5050063;28;20041;-78
2023/03/05 07:01:34;;;;;;;40.03;14.75;;;;;;;1.07;100.00;99120.19;5043026;28;20109;-78
2023/03/05 07:04:02;;;;;;;39.63;13.48;;;;;;;0.95;100.00;99091.72;5049586;28;20045;-78
2023/03/05 07:06:33;;;;;;;39.33;16.10;;;;;;;1.14;100.00;99125.88;5051205;28;20048;-78
2023/03/05 07:09:01;;;;;;;49.63;15.90;;;;;;;1.17;100.00;99120.25;5053677;28;20044;-78
2023/03/05 07:11:28;;;;;;;49.30;16.75;;;;;;;1.17;100.00;99114.91;5051018;28;20515;-78
2023/03/05 07:13:55;;;;;;;37.25;15.57;;;;;;;1.15;100.00;99098.97;5048000;28;20049;-77
2023/03/05 07:16:23;;;;;;;37.60;14.00;;;;;;;1.16;100.00;99100.66;5054079;28;20408;-78
2023/03/05 07:18:50;;;;;;;50.33;17.67;;;;;;;1.27;100.00;99107.81;5051890;28;20059;-78
2023/03/05 07:21:19;;;;;;;40.97;16.35;;;;;;;1.20;100.00;99094.06;5052395;28;20771;-78
2023/03/05 07:23:47;;;;;;;43.03;15.73;;;;;;;1.17;100.00;99093.47;5053894;28;20041;-78
2023/03/05 07:26:13;;;;;;;42.70;15.20;;;;;;;1.13;100.00;99097.38;5048303;28;20049;-78
2023/03/05 07:28:40;;;;;;;39.72;15.63;;;;;;;1.22;100.00;99118.06;5056861;28;20040;-78
2023/03/05 07:31:09;;;;;;;44.75;14.57;;;;;;;1.24;100.00;99102.72;5050537;28;20049;-78
2023/03/05 07:33:36;;;;;;;36.22;14.70;;;;;;;1.20;100.00;99091.38;5053761;28;20051;-78
2023/03/05 07:36:03;;;;;;;39.30;14.52;;;;;;;1.28;100.00;99103.28;5054403;28;20505;-78
2023/03/05 07:38:30;;;;;;;34.67;13.15;;;;;;;1.34;100.00;99113.50;5051628;28;20447;-78
2023/03/05 07:41:02;;;;;;;36.97;14.65;;;;;;;1.33;100.00;99104.63;5048295;28;20132;-78
2023/03/05 07:43:28;;;;;;;36.45;12.95;;;;;;;1.44;100.00;99103.72;5055224;28;20045;-78
2023/03/05 07:45:55;;;;;;;44.25;13.30;;;;;;;1.38;100.00;99088.16;5056246;28;20045;-78
2023/03/05 07:48:25;;;;;;;33.10;11.68;;;;;;;1.60;100.00;99108.66;5043141;28;20052;-77
2023/03/05 07:51:00;;;;;;;32.13;12.27;;;;;;;1.40;100.00;99072.81;5052141;28;20057;-77
2023/03/05 07:53:27;;;;;;;43.85;12.88;;;;;;;1.50;100.00;99075.56;5047938;28;20476;-78
2023/03/05 07:55:53;;;;;;;38.08;12.95;;;;;;;1.57;100.00;99082.13;5046815;28;20053;-78
2023/03/05 07:58:21;;;;;;;35.75;13.18;;;;;;;1.50;100.00;99071.06;5048338;28;20049;-78
2023/03/05 08:00:48;;;;;;;39.53;12.35;;;;;;;1.59;100.00;99090.88;5051119;28;20052;-78
2023/03/05 08:03:16;;;;;;;43.92;14.27;;;;;;;1.61;100.00;99115.69;5052119;28;20419;-79
2023/03/05 08:05:43;;;;;;;38.63;14.35;;;;;;;1.51;100.00;99102.25;5052179;28;20049;-78
2023/03/05 08:08:10;;;;;;;35.83;13.95;;;;;;;1.65;100.00;99089.50;5053226;28;20045;-78
2023/03/05 08:10:37;;;;;;;35.90;13.40;;;;;;;1.59;100.00;99078.31;5049194;28;20510;-78
2023/03/05 08:13:05;;;;;;;29.88;13.88;;;;;;;1.59;100.00;99083.66;5050735;28;20423;-79
2023/03/05 08:15:33;;;;;;;30.17;13.45;;;;;;;1.57;100.00;99087.47;5049538;28;20184;-79
2023/03/05 08:18:00;;;;;;;36.50;13.77;;;;;;;1.57;100.00;99082.13;5050057;28;20055;-78
2023/03/05 08:20:27;;;;;;;33.58;12.93;;;;;;;1.82;100.00;99106.84;5050687;28;20045;-79
2023/03/05 08:22:53;;;;;;;32.90;13.18;;;;;;;1.69;100.00;99082.91;5049061;28;20056;-79
2023/03/05 08:25:20;;;;;;;37.28;14.48;;;;;;;1.72;100.00;99090.69;5047275;28;20433;-79
2023/03/05 08:27:47;;;;;;;35.45;13.35;;;;;;;1.82;100.00;99106.84;5050582;28;20484;-78
2023/03/05 08:30:17;;;;;;;37.17;13.48;;;;;;;1.75;100.00;99083.22;5050085;28;20041;-78
2023/03/05 08:32:45;;;;;;;38.22;12.60;;;;;;;1.89;100.00;99098.13;5049772;28;20045;-78
2023/03/05 08:35:12;;;;;;;40.33;16.70;;;;;;;1.77;100.00;99072.38;5050849;28;20127;-79
2023/03/05 08:37:38;;;;;;;37.38;14.52;;;;;;;1.79;100.00;99065.03;5048017;28;20051;-79
2023/03/05 08:40:06;;;;;;;34.45;13.77;;;;;;;1.89;100.00;99083.88;5050353;28;20049;-78
2023/03/05 08:42:33;;;;;;;34.00;12.73;;;;;;;1.83;100.00;99082.56;5049670;28;20280;-79
2023/03/05 08:44:59;;;;;;;31.58;11.90;;;;;;;1.90;100.00;99094.47;5050090;28;20049;-78
2023/03/05 08:47:26;;;;;;;33.47;13.07;;;;;;;1.77;100.00;99067.84;5050793;28;20055;-78
2023/03/05 08:49:56;;;;;;;28.98;13.00;;;;;;;1.97;100.00;99089.44;5050171;28;20049;-78
2023/03/05 08:52:23;;;;;;;32.08;12.73;;;;;;;1.89;100.00;99079.38;5046225;28;20045;-78
2023/03/05 08:54:49;;;;;;;43.55;15.15;;;;;;;1.81;100.00;99056.88;5049478;28;20052;-78
2023/03/05 08:57:16;;;;;;;38.60;13.75;;;;;;;1.96;100.00;99068.97;5050682;28;20056;-78
2023/03/05 08:59:43;;;;;;;35.83;13.43;;;;;;;2.01;100.00;99074.78;5050309;28;20051;-79
2023/03/05 09:02:11;;;;;;;39.75;15.35;;;;;;;1.99;100.00;99060.66;5050215;28;20075;-79
2023/03/05 09:04:38;;;;;;;44.08;14.68;;;;;;;1.95;100.00;99052.03;5047770;28;20044;-78
2023/03/05 09:07:06;;;;;;;43.28;14.30;;;;;;;1.94;100.00;99054.84;5046408;28;20044;-78
2023/03/05 09:09:33;;;;;;;43.38;14.02;;;;;;;2.01;100.00;99060.53;5042506;28;20042;-78
2023/03/05 09:11:59;;;;;;;40.67;13.82;;;;;;;2.18;100.00;99059.91;5047494;28;20076;-78
2023/03/05 09:14:27;;;;;;;33.72;14.00;;;;;;;2.18;100.00;99043.81;5049432;28;20045;-78
2023/03/05 09:16:53;;;;;;;32.95;13.25;;;;;;;2.28;100.00;99065.31;5050339;28;20075;-78
2023/03/05 09:19:20;;;;;;;44.53;13.77;;;;;;;2.19;100.00;99064.28;5049216;28;20051;-78
2023/03/05 09:21:46;;;;;;;37.00;13.07;;;;;;;2.22;100.00;99055.13;5047967;28;20049;-78
2023/03/05 09:24:14;;;;;;;34.35;13.00;;;;;;;2.19;100.00;99040.16;5048746;28;20540;-79
2023/03/05 09:26:41;;;;;;;35.53;12.07;;;;;;;2.18;100.00;99032.25;5050125;28;20049;-79
2023/03/05 09:29:08;;;;;;;31.27;12.27;;;;;;;2.46;100.00;99060.19;5048794;28;20053;-79
2023/03/05 09:31:34;;;;;;;30.50;12.57;;;;;;;2.34;100.00;99035.28;5049612;28;20489;-78
2023/03/05 09:34:01;;;;;;;33.75;13.63;;;;;;;2.45;100.00;99045.06;5048685;28;20495;-78
2023/03/05 09:36:30;;;;;;;33.70;13.05;;;;;;;2.48;100.00;99021.50;5049580;28;20045;-79
2023/03/05 09:38:57;;;;;;;38.53;13.43;;;;;;;2.52;100.00;99031.97;5049981;28;20059;-78
2023/03/05 09:41:36;;;;;;;37.72;13.65;;;;;;;2.44;100.00;99017.38;5049723;28;20331;-78
2023/03/05 09:44:17;;;;;;;40.85;13.43;;;;;;;2.34;100.00;99024.53;5048484;28;20152;-78
2023/03/05 09:46:52;;;;;;;37.30;13.13;;;;;;;2.33;100.00;99030.88;5048715;28;20041;-79
2023/03/05 09:49:29;;;;;;;36.40;11.95;;;;;;;2.32;100.00;99037.25;5048366;28;20411;-79
2023/03/05 09:52:06;;;;;;;27.25;12.70;;;;;;;2.43;100.00;99012.16;5050384;28;20053;-78
2023/03/05 09:54:38;;;;;;;29.85;11.82;;;;;;;2.41;100.00;99009.59;5052821;28;20136;-78
2023/03/05 09:57:16;;;;;;;33.45;12.65;;;;;;;2.61;100.00;99034.66;5050400;28;20056;-78
2023/03/05 09:59:49;;;;;;;41.28;12.35;;;;;;;2.47;100.00;99005.53;5053598;28;20048;-78
2023/03/05 10:02:20;;;;;;;31.73;13.25;;;;;;;2.38;100.00;99009.00;5051165;28;20408;-78
2023/03/05 10:04:53;;;;;;;35.25;12.90;;;;;;;2.34;100.00;99002.25;5053005;28;20508;-79
2023/03/05 10:07:25;;;;;;;34.75;13.65;;;;;;;2.43;100.00;99021.03;5052181;28;20488;-78
2023/03/05 10:09:57;;;;;;;33.35;12.57;;;;;;;2.34;100.00;99011.13;5051165;28;20059;-78
2023/03/05 10:12:31;;;;;;;31.00;13.52;;;;;;;2.29;100.00;99003.50;5051084;28;20052;-78
2023/03/05 10:14:59;;;;;;;43.60;13.48;;;;;;;2.48;100.00;99028.69;5053346;28;20052;-78
2023/03/05 10:17:47;;;;;;;37.10;14.48;;;;;;;2.46;100.00;99007.34;5053419;28;20459;-79
2023/03/05 10:20:52;;;;;;;33.95;11.85;;;;;;;2.57;100.00;98994.81;5053112;28;20063;-78
2023/03/05 10:23:28;;;;;;;33.20;12.77;;;;;;;2.52;100.00;99003.28;5048324;28;20052;-78
2023/03/05 10:26:05;;;;;;;32.10;12.60;;;;;;;2.44;100.00;99009.34;5051054;28;20072;-79
2023/03/05 10:28:43;;;;;;;32.83;12.45;;;;;;;2.69;100.00;99003.59;5053180;28;20064;-79
2023/03/05 10:31:35;;;;;;;31.85;11.70;;;;;;;2.58;100.00;98993.84;5051023;28;20041;-78
2023/03/05 10:34:26;;;;;;;35.03;13.10;;;;;;;2.56;100.00;98987.72;5032029;28;20053;-78
2023/03/05 10:37:13;;;;;;;30.30;12.93;;;;;;;2.63;100.00;98988.88;5050918;28;20081;-78
2023/03/05 10:39:55;;;;;;;29.98;12.63;;;;;;;2.97;100.00;99018.06;5049826;28;20053;-79
2023/03/05 10:42:29;;;;;;;31.45;11.73;;;;;;;2.93;100.00;98985.25;5042149;28;20057;-78
2023/03/05 10:44:58;;;;;;;30.75;12.05;;;;;;;3.00;100.00;99002.50;5041127;28;20053;-79
2023/03/05 10:47:29;;;;;;;28.88;12.93;;;;;;;2.99;100.00;98975.78;5052470;28;20045;-79
2023/03/05 10:49:58;;;;;;;31.65;12.93;;;;;;;3.09;100.00;98983.84;5052762;28;20049;-78
2023/03/05 10:52:30;;;;;;;24.58;10.95;;;;;;;3.18;100.00;98975.78;5051751;28;20052;-79
2023/03/05 10:54:57;;;;;;;36.97;11.85;;;;;;;3.32;100.00;98995.16;5052721;28;20053;-79
2023/03/05 10:57:25;;;;;;;38.17;14.63;;;;;;;3.23;100.00;98982.56;5052432;28;20049;-79
2023/03/05 10:59:54;;;;;;;29.23;12.13;;;;;;;3.64;100.00;98989.41;5043880;28;20054;-78
2023/03/05 11:02:22;;;;;;;34.53;13.10;;;;;;;3.39;100.00;98974.78;5049149;28;20045;-78
2023/03/05 11:04:50;;;;;;;37.25;12.35;;;;;;;3.29;100.00;98963.19;5052396;28;20053;-79
2023/03/05 11:07:38;;;;;;;31.48;13.25;;;;;;;3.22;100.00;98960.22;5052123;28;20047;-79
2023/03/05 11:10:17;;;;;;;28.88;13.18;;;;;;;3.49;100.00;98958.63;5046038;28;20049;-79
2023/03/05 11:12:45;;;;;;;38.15;13.60;;;;;;;3.41;100.00;98953.97;5031725;28;20072;-79
2023/03/05 11:15:29;;;;;;;30.27;12.70;;;;;;;3.39;100.00;98963.16;5051835;28;20053;-79
2023/03/05 11:18:20;;;;;;;31.30;13.00;;;;;;;3.42;100.00;98973.63;5050145;28;20041;-79
2023/03/05 11:20:47;;;;;;;26.95;12.43;;;;;;;3.45;100.00;98978.75;5051073;28;20072;-79
2023/03/05 11:23:15;;;;;;;38.03;14.00;;;;;;;3.68;100.00;98968.50;5048206;28;20051;-78
2023/03/05 11:25:54;;;;;;;31.80;12.93;;;;;;;3.74;100.00;98962.53;5051355;28;20488;-78
2023/03/05 11:28:24;;;;;;;27.77;12.77;;;;;;;3.39;100.00;98939.84;5052190;28;20075;-79
2023/03/05 11:30:59;;;;;;;26.98;10.93;;;;;;;3.34;100.00;98936.72;5051970;28;20044;-79
2023/03/05 11:33:28;;;;;;;29.00;12.25;;;;;;;3.53;100.00;98947.44;5051174;28;20075;-78
2023/03/05 11:36:21;;;;;;;28.67;11.17;;;;;;;3.34;100.00;98939.41;5051119;28;20063;-78
2023/03/05 11:38:52;;;;;;;25.33;12.57;;;;;;;3.61;100.00;98954.75;5048471;28;20053;-78
2023/03/05 11:41:23;;;;;;;29.67;13.25;;;;;;;3.39;100.00;98923.72;5050840;28;20103;-79
2023/03/05 11:43:53;;;;;;;30.98;12.73;;;;;;;3.41;100.00;98919.03;5051514;28;20049;-78
2023/03/05 11:46:21;;;;;;;30.13;12.20;;;;;;;3.63;100.00;98922.34;5050912;28;20037;-78
2023/03/05 11:48:50;;;;;;;31.38;11.73;;;;;;;3.69;100.00;98932.56;5051614;28;20464;-79
2023/03/05 11:51:21;;;;;;;27.67;11.98;;;;;;;3.56;100.00;98921.28;5051377;28;20053;-79
2023/03/05 11:53:52;;;;;;;28.17;12.30;;;;;;;3.80;99.08;98921.59;5050973;28;20052;-78
2023/03/05 11:56:21;;;;;;;29.25;12.13;;;;;;;3.99;98.52;98938.66;5050380;28;20045;-79
2023/03/05 11:58:52;;;;;;;26.70;12.55;;;;;;;3.70;97.29;98896.59;5051501;28;20136;-79
2023/03/05 12:01:21;;;;;;;25.42;12.20;;;;;;;3.96;98.02;98928.19;5050582;28;20055;-79
2023/03/05 12:03:50;;;;;;;26.80;12.03;;;;;;;3.93;96.47;98904.28;5050811;28;20064;-79
2023/03/05 12:06:26;;;;;;;29.48;12.70;;;;;;;3.97;96.04;98906.50;5050390;28;20307;-79
2023/03/05 12:08:55;;;;;;;28.80;12.00;;;;;;;3.99;95.29;98892.91;5051311;28;20219;-79
2023/03/05 12:11:26;;;;;;;27.60;11.40;;;;;;;3.93;96.12;98898.91;5051224;28;20485;-78
2023/03/05 12:13:56;;;;;;;24.40;12.70;;;;;;;3.96;95.49;98891.41;5050129;28;20048;-78
2023/03/05 12:16:28;;;;;;;30.35;11.32;;;;;;;4.20;93.94;98906.97;5049182;28;20041;-79
2023/03/05 12:19:10;;;;;;;27.55;11.60;;;;;;;4.04;94.32;98890.63;5031059;28;20048;-78
2023/03/05 12:21:39;;;;;;;23.05;12.20;;;;;;;4.02;94.53;98880.03;5042148;28;20048;-78
2023/03/05 12:24:34;;;;;;;27.85;11.20;;;;;;;4.06;94.12;98885.94;5050405;28;20499;-78
2023/03/05 12:27:10;;;;;;;26.35;10.93;;;;;;;4.08;93.45;98876.75;5050886;28;20053;-78
2023/03/05 12:29:46;;;;;;;23.33;11.23;;;;;;;3.85;93.51;98862.00;5050321;28;20037;-78
2023/03/05 12:32:59;;;;;;;31.10;11.80;;;;;;;3.99;94.92;98876.78;5049846;28;20057;-78
2023/03/05 12:35:36;;;;;;;28.40;11.98;;;;;;;3.89;94.22;98855.31;5031640;28;20099;-78
2023/03/05 12:38:37;;;;;;;28.83;12.60;;;;;;;3.91;94.25;98842.56;5030849;28;20068;-78
2023/03/05 12:41:34;;;;;;;29.05;12.25;;;;;;;3.99;94.97;98860.63;5036003;28;20072;-78
2023/03/05 12:44:24;;;;;;;26.02;13.60;;;;;;;3.83;94.85;98839.78;5049533;28;20162;-78
2023/03/05 12:47:18;;;;;;;27.00;11.35;;;;;;;4.13;91.49;98860.13;5030261;28;20500;-78
2023/03/05 12:49:46;;;;;;;26.48;12.48;;;;;;;3.81;91.80;98825.63;5049555;28;20083;-78
2023/03/05 12:52:21;;;;;;;23.55;10.43;;;;;;;3.77;92.59;98814.34;5049288;28;20088;-78
2023/03/05 12:55:00;;;;;;;27.35;11.20;;;;;;;4.08;92.96;98852.53;5050736;28;20628;-78
2023/03/05 12:57:30;;;;;;;30.95;10.48;;;;;;;3.99;88.77;98836.44;5050412;28;20053;-78
2023/03/05 13:00:04;;;;;;;23.98;10.43;;;;;;;3.81;88.34;98831.00;5043956;28;20051;-78
2023/03/05 13:02:36;;;;;;;22.02;9.15;;;;;;;3.67;88.75;98814.41;5044443;28;20057;-78
2023/03/05 13:05:07;;;;;;;27.35;10.38;;;;;;;3.71;90.12;98839.13;5049705;28;20136;-78
2023/03/05 13:07:35;;;;;;;30.33;12.73;;;;;;;3.45;91.05;98806.75;5053337;28;20060;-78
2023/03/05 13:10:02;;;;;;;23.10;10.00;;;;;;;3.51;90.54;98806.13;5052616;28;20045;-78
2023/03/05 13:12:30;;;;;;;20.27;8.73;;;;;;;3.61;89.05;98816.81;5049138;28;20041;-78
2023/03/05 13:15:03;;;;;;;14.15;8.07;;;;;;;3.62;89.62;98831.97;5053008;28;20060;-78
2023/03/05 13:17:33;;;;;;;21.95;9.38;;;;;;;3.50;89.70;98799.06;5043043;28;20102;-78
2023/03/05 13:20:04;;;;;;;16.15;8.40;;;;;;;3.52;88.69;98803.31;5044005;28;20599;-78
2023/03/05 13:22:32;;;;;;;20.17;8.68;;;;;;;3.81;87.52;98828.31;5041377;28;20143;-78
2023/03/05 13:25:19;;;;;;;18.98;9.35;;;;;;;3.75;87.12;98823.53;5049156;28;20381;-78
2023/03/05 13:27:46;;;;;;;22.60;9.15;;;;;;;3.79;86.44;98833.84;5050340;28;20107;-78
2023/03/05 13:30:22;;;;;;;25.55;9.85;;;;;;;3.77;86.70;98825.09;5048361;28;20053;-78
2023/03/05 13:32:51;;;;;;;19.65;11.02;;;;;;;3.72;85.03;98833.63;5052495;28;20049;-78
2023/03/05 13:35:20;;;;;;;23.33;9.23;;;;;;;3.47;86.15;98799.34;5049829;28;20053;-78
2023/03/05 13:37:48;;;;;;;27.17;9.52;;;;;;;3.51;86.56;98795.38;5047199;28;20106;-78
2023/03/05 13:40:22;;;;;;;19.90;8.85;;;;;;;3.48;87.24;98793.00;5052678;28;20063;-78
2023/03/05 13:42:49;;;;;;;22.27;9.93;;;;;;;3.54;87.46;98813.91;5050327;28;20407;-78
2023/03/05 13:45:29;;;;;;;27.83;10.60;;;;;;;3.56;87.75;98808.38;5048919;28;20044;-78
2023/03/05 13:47:58;;;;;;;25.77;8.73;;;;;;;3.73;87.08;98821.00;5048163;28;20056;-78
2023/03/05 13:50:27;;;;;;;22.27;9.35;;;;;;;3.54;86.65;98787.88;5051304;28;20048;-78
2023/03/05 13:52:55;;;;;;;22.00;10.75;;;;;;;3.63;86.96;98820.19;5047583;28;20336;-78
2023/03/05 13:55:23;;;;;;;25.88;10.73;;;;;;;3.65;87.42;98819.06;5050752;28;20049;-78
2023/03/05 13:57:51;;;;;;;51.13;23.48;;;;;;;3.41;88.21;98790.03;5052839;28;20049;-78
2023/03/05 14:00:31;;;;;;;53.17;19.85;;;;;;;3.41;88.34;98781.97;5050617;28;20133;-78
2023/03/05 14:03:01;;;;;;;50.35;19.10;;;;;;;3.46;87.56;98782.41;5049671;28;20572;-78
2023/03/05 14:05:29;;;;;;;33.67;13.40;;;;;;;3.32;87.91;98785.56;5051491;28;20495;-78
2023/03/05 14:07:56;;;;;;;43.60;15.88;;;;;;;3.36;88.09;98795.88;5053298;28;20045;-78
2023/03/05 14:10:36;;;;;;;36.72;16.10;;;;;;;3.36;89.04;98803.94;5050457;28;20045;-78
2023/03/05 14:13:06;;;;;;;30.50;13.38;;;;;;;3.29;89.51;98791.22;5051157;28;20049;-78
2023/03/05 14:15:34;;;;;;;35.35;13.98;;;;;;;3.36;89.67;98784.28;5045490;28;20507;-77
2023/03/05 14:18:18;;;;;;;46.75;20.63;;;;;;;3.29;89.67;98765.19;5051641;28;20049;-78
2023/03/05 14:21:01;;;;;;;18.83;9.52;;;;;;;3.28;90.05;98768.03;5046798;28;20045;-78
2023/03/05 14:23:35;;;;;;;52.92;18.60;;;;;;;3.19;90.29;98761.69;5052564;28;20084;-78
2023/03/05 14:26:20;;;;;;;47.55;18.63;;;;;;;3.23;91.32;98771.16;5041420;28;20056;-78
2023/03/05 14:28:52;;;;;;;30.08;11.70;;;;;;;3.10;92.05;98751.84;5051774;28;20064;-78
2023/03/05 14:31:19;;;;;;;18.63;10.00;;;;;;;3.33;93.18;98773.81;5046639;28;20527;-78
2023/03/05 14:33:46;;;;;;;28.48;10.25;;;;;;;3.24;92.56;98766.63;5052180;28;20059;-78
2023/03/05 14:36:13;;;;;;;25.20;9.85;;;;;;;3.19;92.77;98745.59;5045936;28;20081;-78
2023/03/05 14:38:42;;;;;;;25.02;10.68;;;;;;;3.29;93.65;98769.75;5052275;28;20055;-78
2023/03/05 14:41:34;;;;;;;25.02;11.43;;;;;;;3.11;92.70;98734.75;5052551;28;20055;-78
2023/03/05 14:44:01;;;;;;;23.70;9.77;;;;;;;3.31;91.67;98762.38;5052461;28;20071;-78
2023/03/05 14:46:28;;;;;;;22.35;9.52;;;;;;;3.18;93.08;98736.69;5050224;28;20065;-78
2023/03/05 14:48:55;;;;;;;21.40;9.48;;;;;;;3.11;92.01;98737.44;5052361;28;20053;-78
2023/03/05 14:51:21;;;;;;;20.55;10.70;;;;;;;3.32;92.21;98758.69;5051909;28;20041;-79
2023/03/05 14:53:49;;;;;;;17.30;8.82;;;;;;;3.19;92.27;98737.53;5049560;28;20064;-78
2023/03/05 14:56:21;;;;;;;19.08;9.20;;;;;;;3.28;92.76;98747.41;5052625;28;20417;-79
2023/03/05 14:58:49;;;;;;;21.55;9.10;;;;;;;3.24;92.90;98718.28;5050888;28;20052;-78
2023/03/05 15:01:16;;;;;;;27.67;11.63;;;;;;;3.32;92.77;98729.13;5051405;28;20404;-79
2023/03/05 15:03:43;;;;;;;31.15;11.77;;;;;;;3.16;92.74;98709.16;5051653;28;20044;-79
2023/03/05 15:06:20;;;;;;;28.08;10.57;;;;;;;3.24;92.27;98715.59;5047784;28;20049;-78
2023/03/05 15:08:47;;;;;;;21.70;9.25;;;;;;;3.15;91.92;98710.13;5047597;28;20486;-79
2023/03/05 15:11:13;;;;;;;19.60;8.18;;;;;;;3.11;90.97;98689.09;5052154;28;20051;-78
2023/03/05 15:13:40;;;;;;;16.05;8.10;;;;;;;3.20;90.15;98712.38;5052016;28;20049;-79
2023/03/05 15:16:15;;;;;;;18.30;6.45;;;;;;;3.25;88.88;98703.84;5052302;28;20044;-78
2023/03/05 15:18:42;;;;;;;18.15;8.00;;;;;;;3.10;89.25;98680.19;5052130;28;20045;-78
2023/03/05 15:21:08;;;;;;;16.98;7.03;;;;;;;3.18;89.61;98693.72;5051989;28;20056;-79
2023/03/05 15:23:37;;;;;;;21.23;8.60;;;;;;;3.18;89.43;98688.34;5048517;28;20070;-78
2023/03/05 15:26:05;;;;;;;24.08;9.50;;;;;;;3.16;89.18;98684.09;5047688;28;20056;-79
2023/03/05 15:28:33;;;;;;;22.30;8.50;;;;;;;3.18;88.10;98692.88;5052099;28;20485;-79
2023/03/05 15:30:59;;;;;;;15.35;7.53;;;;;;;3.16;88.44;98671.53;5051607;28;20053;-79
2023/03/05 15:33:27;;;;;;;20.33;8.07;;;;;;;3.17;88.76;98686.63;5051253;28;20094;-79
2023/03/05 15:35:54;;;;;;;16.55;6.60;;;;;;;3.20;87.75;98693.56;5032433;28;20521;-79
2023/03/05 15:38:21;;;;;;;23.00;6.22;;;;;;;3.03;88.31;98668.34;5051557;28;20060;-79
2023/03/05 15:40:49;;;;;;;17.00;6.97;;;;;;;3.09;88.01;98665.06;5051537;28;20053;-79
2023/03/05 15:43:16;;;;;;;15.25;7.25;;;;;;;3.10;87.98;98687.38;5045156;28;20408;-79
2023/03/05 15:45:43;;;;;;;20.05;8.13;;;;;;;2.97;87.82;98661.72;5052115;28;20432;-79
2023/03/05 15:48:09;;;;;;;15.18;6.82;;;;;;;3.08;87.52;98692.91;5051860;28;20492;-78
2023/03/05 15:50:39;;;;;;;13.32;6.13;;;;;;;2.95;87.14;98658.34;5050251;28;20087;-79
2023/03/05 15:53:06;;;;;;;13.25;6.35;;;;;;;3.03;86.87;98662.13;5051256;28;20171;-79
2023/03/05 15:55:37;;;;;;;32.22;9.60;;;;;;;3.00;87.52;98674.84;5051478;28;20462;-79
2023/03/05 15:58:04;;;;;;;16.40;6.63;;;;;;;3.01;87.89;98675.69;5050217;28;20059;-79
2023/03/05 16:00:35;;;;;;;16.38;6.85;;;;;;;2.86;88.24;98655.69;5046938;28;20408;-80
